sensor_id;sensor_type;location;lat;lon;timestamp;temperature;humidity
15983;DHT22;14442;50.196;8.096;2022-10-17T00:00:19;23.00;63.20
15983;DHT22;14442;50.196;8.096;2022-10-17T00:02:46;23.00;63.20
15983;DHT22;14442;50.196;8.096;2022-10-17T00:05:12;23.00;63.20
15983;DHT22;14442;50.196;8.096;2022-10-17T00:07:39;23.00;63.70
15983;DHT22;14442;50.196;8.096;2022-10-17T00:10:07;23.00;63.20
15983;DHT22;14442;50.196;8.096;2022-10-17T00:12:34;23.00;63.20
15983;DHT22;14442;50.196;8.096;2022-10-17T00:15:02;23.00;63.20
15983;DHT22;14442;50.196;8.096;2022-10-17T00:17:30;23.00;63.30
15983;DHT22;14442;50.196;8.096;2022-10-17T00:19:57;23.00;63.20
15983;DHT22;14442;50.196;8.096;2022-10-17T00:22:25;23.00;63.30
15983;DHT22;14442;50.196;8.096;2022-10-17T00:24:51;23.00;63.20
15983;DHT22;14442;50.196;8.096;2022-10-17T00:27:18;22.90;63.10
15983;DHT22;14442;50.196;8.096;2022-10-17T00:29:47;22.90;63.10
15983;DHT22;14442;50.196;8.096;2022-10-17T00:32:14;23.00;63.20
15983;DHT22;14442;50.196;8.096;2022-10-17T00:34:42;22.90;63.10
15983;DHT22;14442;50.196;8.096;2022-10-17T00:37:08;22.90;63.10
15983;DHT22;14442;50.196;8.096;2022-10-17T00:39:35;22.90;63.20
15983;DHT22;14442;50.196;8.096;2022-10-17T00:42:02;22.90;63.20
15983;DHT22;14442;50.196;8.096;2022-10-17T00:47:35;22.90;63.20
15983;DHT22;14442;50.196;8.096;2022-10-17T00:50:04;22.90;63.20
15983;DHT22;14442;50.196;8.096;2022-10-17T00:52:32;22.90;63.20
15983;DHT22;14442;50.196;8.096;2022-10-17T00:55:20;22.90;63.20
15983;DHT22;14442;50.196;8.096;2022-10-17T00:57:48;22.90;63.20
15983;DHT22;14442;50.196;8.096;2022-10-17T01:00:16;22.90;63.20
15983;DHT22;14442;50.196;8.096;2022-10-17T01:02:43;22.90;63.20
15983;DHT22;14442;50.196;8.096;2022-10-17T01:05:12;22.80;63.10
15983;DHT22;14442;50.196;8.096;2022-10-17T01:07:40;22.90;63.20
15983;DHT22;14442;50.196;8.096;2022-10-17T01:10:08;22.90;64.00
15983;DHT22;14442;50.196;8.096;2022-10-17T01:12:44;22.80;63.10
15983;DHT22;14442;50.196;8.096;2022-10-17T01:15:22;22.80;63.20
15983;DHT22;14442;50.196;8.096;2022-10-17T01:17:58;22.80;63.10
15983;DHT22;14442;50.196;8.096;2022-10-17T01:23:53;22.80;63.20
15983;DHT22;14442;50.196;8.096;2022-10-17T01:26:29;22.80;63.20
15983;DHT22;14442;50.196;8.096;2022-10-17T01:29:28;22.80;63.20
15983;DHT22;14442;50.196;8.096;2022-10-17T01:32:01;22.80;63.20
15983;DHT22;14442;50.196;8.096;2022-10-17T01:34:32;22.70;63.10
15983;DHT22;14442;50.196;8.096;2022-10-17T01:37:03;22.70;63.40
15983;DHT22;14442;50.196;8.096;2022-10-17T01:39:39;22.80;63.20
15983;DHT22;14442;50.196;8.096;2022-10-17T01:42:11;22.70;63.10
15983;DHT22;14442;50.196;8.096;2022-10-17T01:44:45;22.70;63.20
15983;DHT22;14442;50.196;8.096;2022-10-17T01:47:18;22.70;63.10
15983;DHT22;14442;50.196;8.096;2022-10-17T01:49:47;22.70;63.20
15983;DHT22;14442;50.196;8.096;2022-10-17T01:52:18;22.70;63.20
15983;DHT22;14442;50.196;8.096;2022-10-17T01:54:48;22.70;63.20
15983;DHT22;14442;50.196;8.096;2022-10-17T01:57:21;22.70;63.20
15983;DHT22;14442;50.196;8.096;2022-10-17T01:59:51;22.70;63.20
15983;DHT22;14442;50.196;8.096;2022-10-17T02:02:20;22.70;63.20
15983;DHT22;14442;50.196;8.096;2022-10-17T02:04:48;22.70;63.20
15983;DHT22;14442;50.196;8.096;2022-10-17T02:07:16;22.70;63.20
15983;DHT22;14442;50.196;8.096;2022-10-17T02:09:43;22.70;63.20
15983;DHT22;14442;50.196;8.096;2022-10-17T02:15:21;22.60;63.10
15983;DHT22;14442;50.196;8.096;2022-10-17T02:18:02;22.60;63.10
15983;DHT22;14442;50.196;8.096;2022-10-17T02:20:36;22.70;63.20
15983;DHT22;14442;50.196;8.096;2022-10-17T02:23:09;22.60;63.10
15983;DHT22;14442;50.196;8.096;2022-10-17T02:25:41;22.60;63.10
15983;DHT22;14442;50.196;8.096;2022-10-17T02:28:18;22.60;63.10
15983;DHT22;14442;50.196;8.096;2022-10-17T02:30:50;22.60;63.10
15983;DHT22;14442;50.196;8.096;2022-10-17T02:33:23;22.60;63.00
15983;DHT22;14442;50.196;8.096;2022-10-17T02:35:53;22.60;63.10
15983;DHT22;14442;50.196;8.096;2022-10-17T02:38:24;22.60;63.00
15983;DHT22;14442;50.196;8.096;2022-10-17T02:40:53;22.70;63.00
15983;DHT22;14442;50.196;8.096;2022-10-17T02:43:20;22.60;63.00
15983;DHT22;14442;50.196;8.096;2022-10-17T02:45:49;22.60;62.90
15983;DHT22;14442;50.196;8.096;2022-10-17T02:48:22;22.60;62.90
15983;DHT22;14442;50.196;8.096;2022-10-17T02:50:56;22.60;62.90
15983;DHT22;14442;50.196;8.096;2022-10-17T02:53:31;22.60;63.00
15983;DHT22;14442;50.196;8.096;2022-10-17T02:56:05;22.60;63.00
15983;DHT22;14442;50.196;8.096;2022-10-17T02:58:35;22.60;62.90
15983;DHT22;14442;50.196;8.096;2022-10-17T03:01:03;22.60;63.00
15983;DHT22;14442;50.196;8.096;2022-10-17T03:03:32;22.60;62.90
15983;DHT22;14442;50.196;8.096;2022-10-17T03:05:59;22.60;62.90
15983;DHT22;14442;50.196;8.096;2022-10-17T03:08:26;22.60;63.00
15983;DHT22;14442;50.196;8.096;2022-10-17T03:10:52;22.60;63.00
15983;DHT22;14442;50.196;8.096;2022-10-17T03:13:19;22.60;63.10
15983;DHT22;14442;50.196;8.096;2022-10-17T03:15:46;22.60;63.00
15983;DHT22;14442;50.196;8.096;2022-10-17T03:18:12;22.60;63.00
15983;DHT22;14442;50.196;8.096;2022-10-17T03:20:40;22.60;63.00
15983;DHT22;14442;50.196;8.096;2022-10-17T03:23:07;22.60;63.00
15983;DHT22;14442;50.196;8.096;2022-10-17T03:25:34;22.60;63.00
15983;DHT22;14442;50.196;8.096;2022-10-17T03:28:01;22.60;63.00
15983;DHT22;14442;50.196;8.096;2022-10-17T03:30:27;22.50;62.90
15983;DHT22;14442;50.196;8.096;2022-10-17T03:32:56;22.50;63.00
15983;DHT22;14442;50.196;8.096;2022-10-17T03:35:22;22.50;63.00
15983;DHT22;14442;50.196;8.096;2022-10-17T03:37:50;22.50;63.00
15983;DHT22;14442;50.196;8.096;2022-10-17T03:40:17;22.50;63.00
15983;DHT22;14442;50.196;8.096;2022-10-17T03:42:44;22.50;63.00
15983;DHT22;14442;50.196;8.096;2022-10-17T03:45:10;22.50;63.00
15983;DHT22;14442;50.196;8.096;2022-10-17T03:47:37;22.50;63.00
15983;DHT22;14442;50.196;8.096;2022-10-17T03:50:05;22.50;63.00
15983;DHT22;14442;50.196;8.096;2022-10-17T03:52:31;22.50;63.00
15983;DHT22;14442;50.196;8.096;2022-10-17T03:54:59;22.50;63.00
15983;DHT22;14442;50.196;8.096;2022-10-17T03:57:26;22.50;63.00
15983;DHT22;14442;50.196;8.096;2022-10-17T03:59:53;22.50;63.00
15983;DHT22;14442;50.196;8.096;2022-10-17T04:02:19;22.50;63.00
15983;DHT22;14442;50.196;8.096;2022-10-17T04:04:46;22.50;63.00
15983;DHT22;14442;50.196;8.096;2022-10-17T04:07:13;22.40;62.90
15983;DHT22;14442;50.196;8.096;2022-10-17T04:09:39;22.40;62.90
15983;DHT22;14442;50.196;8.096;2022-10-17T04:12:07;22.40;63.00
15983;DHT22;14442;50.196;8.096;2022-10-17T04:14:35;22.40;63.00
15983;DHT22;14442;50.196;8.096;2022-10-17T04:17:01;22.40;62.90
15983;DHT22;14442;50.196;8.096;2022-10-17T04:19:28;22.40;62.90
15983;DHT22;14442;50.196;8.096;2022-10-17T04:21:55;22.40;62.90
15983;DHT22;14442;50.196;8.096;2022-10-17T04:24:21;22.40;62.90
15983;DHT22;14442;50.196;8.096;2022-10-17T04:26:50;22.40;62.90
15983;DHT22;14442;50.196;8.096;2022-10-17T04:29:18;22.40;62.90
15983;DHT22;14442;50.196;8.096;2022-10-17T04:31:45;22.40;62.90
15983;DHT22;14442;50.196;8.096;2022-10-17T04:34:12;22.40;62.90
15983;DHT22;14442;50.196;8.096;2022-10-17T04:36:39;22.40;62.90
15983;DHT22;14442;50.196;8.096;2022-10-17T04:39:06;22.40;62.90
15983;DHT22;14442;50.196;8.096;2022-10-17T04:41:33;22.40;62.90
15983;DHT22;14442;50.196;8.096;2022-10-17T04:43:59;22.40;62.90
15983;DHT22;14442;50.196;8.096;2022-10-17T04:46:27;22.40;62.90
15983;DHT22;14442;50.196;8.096;2022-10-17T04:48:54;22.40;62.90
15983;DHT22;14442;50.196;8.096;2022-10-17T04:51:21;22.40;62.90
15983;DHT22;14442;50.196;8.096;2022-10-17T04:53:47;22.40;62.90
15983;DHT22;14442;50.196;8.096;2022-10-17T04:56:15;22.40;62.90
15983;DHT22;14442;50.196;8.096;2022-10-17T04:58:43;22.30;62.80
15983;DHT22;14442;50.196;8.096;2022-10-17T05:01:11;22.30;62.80
15983;DHT22;14442;50.196;8.096;2022-10-17T05:03:39;22.30;62.80
15983;DHT22;14442;50.196;8.096;2022-10-17T05:06:08;22.30;62.80
15983;DHT22;14442;50.196;8.096;2022-10-17T05:08:35;22.40;63.00
15983;DHT22;14442;50.196;8.096;2022-10-17T05:11:03;22.30;62.90
15983;DHT22;14442;50.196;8.096;2022-10-17T05:13:30;22.30;62.90
15983;DHT22;14442;50.196;8.096;2022-10-17T05:15:58;22.30;62.90
15983;DHT22;14442;50.196;8.096;2022-10-17T05:18:25;22.40;62.90
15983;DHT22;14442;50.196;8.096;2022-10-17T05:20:54;22.40;62.90
15983;DHT22;14442;50.196;8.096;2022-10-17T05:23:21;22.40;63.00
15983;DHT22;14442;50.196;8.096;2022-10-17T05:25:53;22.40;63.00
15983;DHT22;14442;50.196;8.096;2022-10-17T05:28:20;22.40;63.00
15983;DHT22;14442;50.196;8.096;2022-10-17T05:30:46;22.40;63.10
15983;DHT22;14442;50.196;8.096;2022-10-17T05:33:13;22.40;63.10
15983;DHT22;14442;50.196;8.096;2022-10-17T05:35:40;22.40;63.10
15983;DHT22;14442;50.196;8.096;2022-10-17T05:38:08;22.40;63.20
15983;DHT22;14442;50.196;8.096;2022-10-17T05:40:34;22.30;63.10
15983;DHT22;14442;50.196;8.096;2022-10-17T05:43:02;22.40;63.10
15983;DHT22;14442;50.196;8.096;2022-10-17T05:45:29;22.30;63.10
15983;DHT22;14442;50.196;8.096;2022-10-17T05:47:56;22.30;63.10
15983;DHT22;14442;50.196;8.096;2022-10-17T05:50:22;22.40;63.20
15983;DHT22;14442;50.196;8.096;2022-10-17T05:52:52;22.40;63.20
15983;DHT22;14442;50.196;8.096;2022-10-17T05:55:20;22.30;63.10
15983;DHT22;14442;50.196;8.096;2022-10-17T05:57:47;22.40;63.20
15983;DHT22;14442;50.196;8.096;2022-10-17T06:00:14;22.40;63.20
15983;DHT22;14442;50.196;8.096;2022-10-17T06:02:41;22.30;63.10
15983;DHT22;14442;50.196;8.096;2022-10-17T06:05:10;22.40;63.20
15983;DHT22;14442;50.196;8.096;2022-10-17T06:07:37;22.30;63.10
15983;DHT22;14442;50.196;8.096;2022-10-17T06:10:04;22.30;63.10
15983;DHT22;14442;50.196;8.096;2022-10-17T06:12:32;22.30;63.00
15983;DHT22;14442;50.196;8.096;2022-10-17T06:14:59;22.30;63.00
15983;DHT22;14442;50.196;8.096;2022-10-17T06:17:25;22.30;63.00
15983;DHT22;14442;50.196;8.096;2022-10-17T06:19:53;22.30;63.00
15983;DHT22;14442;50.196;8.096;2022-10-17T06:22:20;22.30;63.00
15983;DHT22;14442;50.196;8.096;2022-10-17T06:24:46;22.40;63.10
15983;DHT22;14442;50.196;8.096;2022-10-17T06:27:13;22.40;63.10
15983;DHT22;14442;50.196;8.096;2022-10-17T06:29:41;22.30;62.90
15983;DHT22;14442;50.196;8.096;2022-10-17T06:32:08;22.30;63.00
15983;DHT22;14442;50.196;8.096;2022-10-17T06:34:34;22.30;63.00
15983;DHT22;14442;50.196;8.096;2022-10-17T06:37:01;22.30;62.90
15983;DHT22;14442;50.196;8.096;2022-10-17T06:39:27;22.30;62.90
15983;DHT22;14442;50.196;8.096;2022-10-17T06:41:58;22.30;62.90
15983;DHT22;14442;50.196;8.096;2022-10-17T06:44:25;22.30;62.90
15983;DHT22;14442;50.196;8.096;2022-10-17T06:46:56;22.30;63.00
15983;DHT22;14442;50.196;8.096;2022-10-17T06:49:23;22.30;62.90
15983;DHT22;14442;50.196;8.096;2022-10-17T06:51:50;22.30;62.90
15983;DHT22;14442;50.196;8.096;2022-10-17T06:54:16;22.30;62.90
15983;DHT22;14442;50.196;8.096;2022-10-17T06:56:43;22.30;62.90
15983;DHT22;14442;50.196;8.096;2022-10-17T06:59:10;22.30;62.90
15983;DHT22;14442;50.196;8.096;2022-10-17T07:01:37;22.30;62.90
15983;DHT22;14442;50.196;8.096;2022-10-17T07:04:05;22.30;62.90
15983;DHT22;14442;50.196;8.096;2022-10-17T07:06:31;22.30;62.90
15983;DHT22;14442;50.196;8.096;2022-10-17T07:08:59;22.30;62.90
15983;DHT22;14442;50.196;8.096;2022-10-17T07:11:27;22.40;62.90
15983;DHT22;14442;50.196;8.096;2022-10-17T07:13:53;22.30;62.90
15983;DHT22;14442;50.196;8.096;2022-10-17T07:16:20;22.30;62.80
15983;DHT22;14442;50.196;8.096;2022-10-17T07:18:48;22.30;62.80
15983;DHT22;14442;50.196;8.096;2022-10-17T07:21:16;22.30;62.80
15983;DHT22;14442;50.196;8.096;2022-10-17T07:23:43;22.30;62.80
15983;DHT22;14442;50.196;8.096;2022-10-17T07:26:11;22.30;62.80
15983;DHT22;14442;50.196;8.096;2022-10-17T07:28:41;22.30;62.80
15983;DHT22;14442;50.196;8.096;2022-10-17T07:31:10;22.30;62.90
15983;DHT22;14442;50.196;8.096;2022-10-17T07:33:37;22.20;62.80
15983;DHT22;14442;50.196;8.096;2022-10-17T07:36:04;22.30;62.80
15983;DHT22;14442;50.196;8.096;2022-10-17T07:38:33;22.30;62.90
15983;DHT22;14442;50.196;8.096;2022-10-17T07:41:01;22.30;62.90
15983;DHT22;14442;50.196;8.096;2022-10-17T07:43:29;22.30;63.00
15983;DHT22;14442;50.196;8.096;2022-10-17T07:45:56;22.30;63.00
15983;DHT22;14442;50.196;8.096;2022-10-17T07:48:24;22.30;63.10
15983;DHT22;14442;50.196;8.096;2022-10-17T07:50:50;22.20;63.00
15983;DHT22;14442;50.196;8.096;2022-10-17T07:53:17;22.30;63.10
15983;DHT22;14442;50.196;8.096;2022-10-17T07:55:46;22.30;63.20
15983;DHT22;14442;50.196;8.096;2022-10-17T07:58:14;22.30;63.20
15983;DHT22;14442;50.196;8.096;2022-10-17T08:00:41;22.30;63.30
15983;DHT22;14442;50.196;8.096;2022-10-17T08:03:09;22.30;63.40
15983;DHT22;14442;50.196;8.096;2022-10-17T08:05:36;22.30;63.40
15983;DHT22;14442;50.196;8.096;2022-10-17T08:08:03;22.30;63.40
15983;DHT22;14442;50.196;8.096;2022-10-17T08:10:29;22.30;63.50
15983;DHT22;14442;50.196;8.096;2022-10-17T08:12:57;22.40;63.70
15983;DHT22;14442;50.196;8.096;2022-10-17T08:15:25;22.30;63.80
15983;DHT22;14442;50.196;8.096;2022-10-17T08:17:52;22.30;64.70
15983;DHT22;14442;50.196;8.096;2022-10-17T08:20:20;22.30;64.00
15983;DHT22;14442;50.196;8.096;2022-10-17T08:22:50;22.30;64.10
15983;DHT22;14442;50.196;8.096;2022-10-17T08:25:17;22.30;64.20
15983;DHT22;14442;50.196;8.096;2022-10-17T08:27:44;22.30;64.20
15983;DHT22;14442;50.196;8.096;2022-10-17T08:30:12;22.30;64.20
15983;DHT22;14442;50.196;8.096;2022-10-17T08:32:39;22.40;64.30
15983;DHT22;14442;50.196;8.096;2022-10-17T08:35:06;22.40;65.80
15983;DHT22;14442;50.196;8.096;2022-10-17T08:37:33;22.50;66.20
15983;DHT22;14442;50.196;8.096;2022-10-17T08:40:00;22.60;66.00
15983;DHT22;14442;50.196;8.096;2022-10-17T08:42:47;22.70;65.90
15983;DHT22;14442;50.196;8.096;2022-10-17T08:45:22;22.70;66.80
15983;DHT22;14442;50.196;8.096;2022-10-17T08:47:53;22.80;67.00
15983;DHT22;14442;50.196;8.096;2022-10-17T08:50:28;22.90;66.70
15983;DHT22;14442;50.196;8.096;2022-10-17T08:53:01;22.90;66.00
15983;DHT22;14442;50.196;8.096;2022-10-17T08:55:31;22.90;65.60
15983;DHT22;14442;50.196;8.096;2022-10-17T08:57:58;22.90;65.30
15983;DHT22;14442;50.196;8.096;2022-10-17T09:00:28;22.90;64.90
15983;DHT22;14442;50.196;8.096;2022-10-17T09:03:08;22.90;64.90
15983;DHT22;14442;50.196;8.096;2022-10-17T09:05:46;22.90;64.80
15983;DHT22;14442;50.196;8.096;2022-10-17T09:08:29;22.80;64.70
15983;DHT22;14442;50.196;8.096;2022-10-17T09:11:03;22.80;64.50
15983;DHT22;14442;50.196;8.096;2022-10-17T09:13:41;22.80;64.40
15983;DHT22;14442;50.196;8.096;2022-10-17T09:16:27;22.80;64.40
15983;DHT22;14442;50.196;8.096;2022-10-17T09:19:00;22.80;64.20
15983;DHT22;14442;50.196;8.096;2022-10-17T09:21:35;22.90;64.10
15983;DHT22;14442;50.196;8.096;2022-10-17T09:24:05;23.00;64.00
15983;DHT22;14442;50.196;8.096;2022-10-17T09:26:36;23.00;64.00
15983;DHT22;14442;50.196;8.096;2022-10-17T09:29:14;23.10;63.90
15983;DHT22;14442;50.196;8.096;2022-10-17T09:31:45;23.10;63.70
15983;DHT22;14442;50.196;8.096;2022-10-17T09:34:15;23.20;64.70
15983;DHT22;14442;50.196;8.096;2022-10-17T09:36:42;23.30;64.10
15983;DHT22;14442;50.196;8.096;2022-10-17T09:39:12;23.30;64.10
15983;DHT22;14442;50.196;8.096;2022-10-17T09:41:43;23.30;64.00
15983;DHT22;14442;50.196;8.096;2022-10-17T09:44:18;23.30;63.90
15983;DHT22;14442;50.196;8.096;2022-10-17T09:46:59;23.30;63.90
15983;DHT22;14442;50.196;8.096;2022-10-17T09:49:31;23.40;64.00
15983;DHT22;14442;50.196;8.096;2022-10-17T09:51:59;23.40;63.90
15983;DHT22;14442;50.196;8.096;2022-10-17T09:54:33;23.40;63.80
15983;DHT22;14442;50.196;8.096;2022-10-17T09:57:05;23.40;63.80
15983;DHT22;14442;50.196;8.096;2022-10-17T09:59:34;23.50;64.10
15983;DHT22;14442;50.196;8.096;2022-10-17T10:02:18;23.50;64.00
15983;DHT22;14442;50.196;8.096;2022-10-17T10:04:52;23.60;64.00
15983;DHT22;14442;50.196;8.096;2022-10-17T10:07:19;23.60;64.00
15983;DHT22;14442;50.196;8.096;2022-10-17T10:09:47;23.60;64.00
15983;DHT22;14442;50.196;8.096;2022-10-17T10:12:17;23.60;64.00
15983;DHT22;14442;50.196;8.096;2022-10-17T10:14:44;23.70;64.00
15983;DHT22;14442;50.196;8.096;2022-10-17T10:17:33;23.70;63.90
15983;DHT22;14442;50.196;8.096;2022-10-17T10:20:02;23.60;63.90
15983;DHT22;14442;50.196;8.096;2022-10-17T10:22:29;23.60;63.90
15983;DHT22;14442;50.196;8.096;2022-10-17T10:25:14;23.70;64.00
15983;DHT22;14442;50.196;8.096;2022-10-17T10:27:42;23.70;64.10
15983;DHT22;14442;50.196;8.096;2022-10-17T10:30:16;23.70;64.10
15983;DHT22;14442;50.196;8.096;2022-10-17T10:32:47;23.80;64.30
15983;DHT22;14442;50.196;8.096;2022-10-17T10:35:19;23.80;64.30
15983;DHT22;14442;50.196;8.096;2022-10-17T10:37:48;23.90;64.50
15983;DHT22;14442;50.196;8.096;2022-10-17T10:40:18;23.90;64.30
15983;DHT22;14442;50.196;8.096;2022-10-17T10:42:47;23.90;64.20
15983;DHT22;14442;50.196;8.096;2022-10-17T10:45:16;24.00;64.30
15983;DHT22;14442;50.196;8.096;2022-10-17T10:47:51;24.00;64.20
15983;DHT22;14442;50.196;8.096;2022-10-17T10:50:25;24.10;64.40
15983;DHT22;14442;50.196;8.096;2022-10-17T10:53:02;24.10;64.30
15983;DHT22;14442;50.196;8.096;2022-10-17T10:55:33;24.10;64.20
15983;DHT22;14442;50.196;8.096;2022-10-17T10:58:15;24.20;64.50
15983;DHT22;14442;50.196;8.096;2022-10-17T11:00:46;24.20;64.40
15983;DHT22;14442;50.196;8.096;2022-10-17T11:03:18;24.20;64.50
15983;DHT22;14442;50.196;8.096;2022-10-17T11:05:50;24.30;64.60
15983;DHT22;14442;50.196;8.096;2022-10-17T11:08:24;24.30;64.50
15983;DHT22;14442;50.196;8.096;2022-10-17T11:11:00;24.30;64.40
15983;DHT22;14442;50.196;8.096;2022-10-17T11:13:33;24.30;64.50
15983;DHT22;14442;50.196;8.096;2022-10-17T11:16:19;24.30;64.70
15983;DHT22;14442;50.196;8.096;2022-10-17T11:18:53;24.20;64.80
15983;DHT22;14442;50.196;8.096;2022-10-17T11:21:29;24.20;64.70
15983;DHT22;14442;50.196;8.096;2022-10-17T11:24:04;24.30;64.70
15983;DHT22;14442;50.196;8.096;2022-10-17T11:26:37;24.30;64.80
15983;DHT22;14442;50.196;8.096;2022-10-17T11:29:05;24.40;64.60
15983;DHT22;14442;50.196;8.096;2022-10-17T11:31:37;24.50;64.60
15983;DHT22;14442;50.196;8.096;2022-10-17T11:34:09;24.50;64.30
15983;DHT22;14442;50.196;8.096;2022-10-17T11:36:41;24.50;64.30
15983;DHT22;14442;50.196;8.096;2022-10-17T11:39:13;24.50;64.20
15983;DHT22;14442;50.196;8.096;2022-10-17T11:41:45;24.50;64.00
15983;DHT22;14442;50.196;8.096;2022-10-17T11:44:18;24.60;64.20
15983;DHT22;14442;50.196;8.096;2022-10-17T11:46:49;24.60;64.00
15983;DHT22;14442;50.196;8.096;2022-10-17T11:49:20;24.70;63.90
15983;DHT22;14442;50.196;8.096;2022-10-17T11:51:51;24.70;63.80
15983;DHT22;14442;50.196;8.096;2022-10-17T11:54:24;24.70;63.90
15983;DHT22;14442;50.196;8.096;2022-10-17T11:57:01;24.70;63.60
15983;DHT22;14442;50.196;8.096;2022-10-17T11:59:56;24.70;63.70
15983;DHT22;14442;50.196;8.096;2022-10-17T12:02:31;24.80;63.70
15983;DHT22;14442;50.196;8.096;2022-10-17T12:05:08;24.80;63.70
15983;DHT22;14442;50.196;8.096;2022-10-17T12:07:45;24.70;63.70
15983;DHT22;14442;50.196;8.096;2022-10-17T12:10:36;24.70;63.60
15983;DHT22;14442;50.196;8.096;2022-10-17T12:16:37;24.80;64.00
15983;DHT22;14442;50.196;8.096;2022-10-17T12:19:22;24.80;63.90
15983;DHT22;14442;50.196;8.096;2022-10-17T12:21:55;24.80;63.50
15983;DHT22;14442;50.196;8.096;2022-10-17T12:24:41;24.90;63.40
15983;DHT22;14442;50.196;8.096;2022-10-17T12:27:38;24.90;63.30
15983;DHT22;14442;50.196;8.096;2022-10-17T12:30:21;24.80;63.30
15983;DHT22;14442;50.196;8.096;2022-10-17T12:33:13;24.80;63.40
15983;DHT22;14442;50.196;8.096;2022-10-17T12:35:46;24.90;64.20
15983;DHT22;14442;50.196;8.096;2022-10-17T12:38:20;24.90;64.30
15983;DHT22;14442;50.196;8.096;2022-10-17T12:41:02;24.90;64.50
15983;DHT22;14442;50.196;8.096;2022-10-17T12:43:48;24.90;64.60
15983;DHT22;14442;50.196;8.096;2022-10-17T12:49:21;24.50;64.30
15983;DHT22;14442;50.196;8.096;2022-10-17T12:54:52;24.50;64.30
15983;DHT22;14442;50.196;8.096;2022-10-17T12:57:24;24.50;64.20
15983;DHT22;14442;50.196;8.096;2022-10-17T12:59:52;24.40;64.20
15983;DHT22;14442;50.196;8.096;2022-10-17T13:02:21;24.40;63.90
15983;DHT22;14442;50.196;8.096;2022-10-17T13:04:51;24.50;63.90
15983;DHT22;14442;50.196;8.096;2022-10-17T13:07:21;24.50;64.10
15983;DHT22;14442;50.196;8.096;2022-10-17T13:09:50;24.50;64.10
15983;DHT22;14442;50.196;8.096;2022-10-17T13:12:22;24.40;64.20
15983;DHT22;14442;50.196;8.096;2022-10-17T13:14:50;24.50;64.10
15983;DHT22;14442;50.196;8.096;2022-10-17T13:17:23;24.50;63.70
15983;DHT22;14442;50.196;8.096;2022-10-17T13:19:52;24.50;63.80
15983;DHT22;14442;50.196;8.096;2022-10-17T13:22:21;24.40;63.90
15983;DHT22;14442;50.196;8.096;2022-10-17T13:24:50;24.40;64.10
15983;DHT22;14442;50.196;8.096;2022-10-17T13:27:23;24.50;63.90
15983;DHT22;14442;50.196;8.096;2022-10-17T13:29:50;24.40;64.10
15983;DHT22;14442;50.196;8.096;2022-10-17T13:32:17;24.50;63.90
15983;DHT22;14442;50.196;8.096;2022-10-17T13:34:44;24.60;63.80
15983;DHT22;14442;50.196;8.096;2022-10-17T13:37:13;24.50;63.80
15983;DHT22;14442;50.196;8.096;2022-10-17T13:39:42;24.50;63.90
15983;DHT22;14442;50.196;8.096;2022-10-17T13:42:19;24.50;63.70
15983;DHT22;14442;50.196;8.096;2022-10-17T13:44:47;24.60;63.50
15983;DHT22;14442;50.196;8.096;2022-10-17T13:47:21;24.60;63.40
15983;DHT22;14442;50.196;8.096;2022-10-17T13:49:49;24.50;63.10
15983;DHT22;14442;50.196;8.096;2022-10-17T13:52:18;24.20;62.80
15983;DHT22;14442;50.196;8.096;2022-10-17T13:54:46;23.90;63.10
15983;DHT22;14442;50.196;8.096;2022-10-17T13:57:19;23.90;63.50
15983;DHT22;14442;50.196;8.096;2022-10-17T13:59:49;23.70;62.50
15983;DHT22;14442;50.196;8.096;2022-10-17T14:02:19;23.70;62.60
15983;DHT22;14442;50.196;8.096;2022-10-17T14:04:46;23.80;62.70
15983;DHT22;14442;50.196;8.096;2022-10-17T14:07:22;24.00;62.30
15983;DHT22;14442;50.196;8.096;2022-10-17T14:09:50;24.10;62.00
15983;DHT22;14442;50.196;8.096;2022-10-17T14:12:20;24.10;61.50
15983;DHT22;14442;50.196;8.096;2022-10-17T14:14:50;24.20;61.50
15983;DHT22;14442;50.196;8.096;2022-10-17T14:17:22;24.10;61.60
15983;DHT22;14442;50.196;8.096;2022-10-17T14:19:51;24.00;62.00
15983;DHT22;14442;50.196;8.096;2022-10-17T14:22:26;24.00;62.20
15983;DHT22;14442;50.196;8.096;2022-10-17T14:24:53;24.10;62.60
15983;DHT22;14442;50.196;8.096;2022-10-17T14:27:30;24.10;63.00
15983;DHT22;14442;50.196;8.096;2022-10-17T14:30:00;24.10;63.10
15983;DHT22;14442;50.196;8.096;2022-10-17T14:32:29;24.10;62.90
15983;DHT22;14442;50.196;8.096;2022-10-17T14:34:59;24.10;62.60
15983;DHT22;14442;50.196;8.096;2022-10-17T14:37:33;24.10;63.00
15983;DHT22;14442;50.196;8.096;2022-10-17T14:40:03;24.00;62.70
15983;DHT22;14442;50.196;8.096;2022-10-17T14:42:31;24.00;62.40
15983;DHT22;14442;50.196;8.096;2022-10-17T14:45:06;24.00;62.00
15983;DHT22;14442;50.196;8.096;2022-10-17T14:47:34;24.00;62.50
15983;DHT22;14442;50.196;8.096;2022-10-17T14:50:04;24.00;62.60
15983;DHT22;14442;50.196;8.096;2022-10-17T14:52:32;24.00;62.80
15983;DHT22;14442;50.196;8.096;2022-10-17T14:55:10;24.10;62.80
15983;DHT22;14442;50.196;8.096;2022-10-17T14:57:43;24.10;62.70
15983;DHT22;14442;50.196;8.096;2022-10-17T15:00:13;24.10;62.40
15983;DHT22;14442;50.196;8.096;2022-10-17T15:02:40;24.20;62.80
15983;DHT22;14442;50.196;8.096;2022-10-17T15:05:07;24.20;62.80
15983;DHT22;14442;50.196;8.096;2022-10-17T15:07:34;24.20;62.60
15983;DHT22;14442;50.196;8.096;2022-10-17T15:10:01;24.20;62.70
15983;DHT22;14442;50.196;8.096;2022-10-17T15:12:27;24.20;63.00
15983;DHT22;14442;50.196;8.096;2022-10-17T15:14:57;24.30;62.90
15983;DHT22;14442;50.196;8.096;2022-10-17T15:17:25;24.10;62.90
15983;DHT22;14442;50.196;8.096;2022-10-17T15:19:52;24.10;62.90
15983;DHT22;14442;50.196;8.096;2022-10-17T15:22:19;24.20;62.90
15983;DHT22;14442;50.196;8.096;2022-10-17T15:24:46;24.20;63.00
15983;DHT22;14442;50.196;8.096;2022-10-17T15:27:14;24.20;63.00
15983;DHT22;14442;50.196;8.096;2022-10-17T15:29:41;24.20;63.10
15983;DHT22;14442;50.196;8.096;2022-10-17T15:32:09;24.20;63.20
15983;DHT22;14442;50.196;8.096;2022-10-17T15:34:36;24.30;63.40
15983;DHT22;14442;50.196;8.096;2022-10-17T15:37:04;24.20;63.30
15983;DHT22;14442;50.196;8.096;2022-10-17T15:39:31;24.20;63.30
15983;DHT22;14442;50.196;8.096;2022-10-17T15:41:58;24.20;63.40
15983;DHT22;14442;50.196;8.096;2022-10-17T15:44:25;24.20;63.50
15983;DHT22;14442;50.196;8.096;2022-10-17T15:46:51;24.20;64.20
15983;DHT22;14442;50.196;8.096;2022-10-17T15:49:20;24.20;63.60
15983;DHT22;14442;50.196;8.096;2022-10-17T15:51:47;24.20;63.70
15983;DHT22;14442;50.196;8.096;2022-10-17T15:54:13;24.20;63.80
15983;DHT22;14442;50.196;8.096;2022-10-17T15:56:41;24.20;64.10
15983;DHT22;14442;50.196;8.096;2022-10-17T15:59:12;24.20;64.20
15983;DHT22;14442;50.196;8.096;2022-10-17T16:01:40;24.20;64.10
15983;DHT22;14442;50.196;8.096;2022-10-17T16:04:09;24.20;64.40
15983;DHT22;14442;50.196;8.096;2022-10-17T16:06:38;24.20;64.40